sensor_id;sensor_type;location;lat;lon;timestamp;P1;durP1;ratioP1;P2;durP2;ratioP2
54271;SDS011;40184;53.362;5.216;2022-09-09T00:00:40;3.95;;;0.88;;
54271;SDS011;40184;53.362;5.216;2022-09-09T00:03:44;4.10;;;0.88;;
54271;SDS011;40184;53.362;5.216;2022-09-09T00:06:23;3.13;;;0.90;;
54271;SDS011;40184;53.362;5.216;2022-09-09T00:12:09;2.60;;;0.75;;
54271;SDS011;40184;53.362;5.216;2022-09-09T00:17:11;5.97;;;1.40;;
54271;SDS011;40184;53.362;5.216;2022-09-09T00:19:50;7.32;;;2.05;;
54271;SDS011;40184;53.362;5.216;2022-09-09T00:22:38;6.00;;;1.13;;
54271;SDS011;40184;53.362;5.216;2022-09-09T00:25:12;7.40;;;2.00;;
54271;SDS011;40184;53.362;5.216;2022-09-09T00:27:47;15.45;;;1.88;;
54271;SDS011;40184;53.362;5.216;2022-09-09T00:30:23;4.72;;;0.90;;
54271;SDS011;40184;53.362;5.216;2022-09-09T00:32:55;11.10;;;1.58;;
54271;SDS011;40184;53.362;5.216;2022-09-09T00:38:03;8.38;;;1.92;;
54271;SDS011;40184;53.362;5.216;2022-09-09T00:40:52;8.25;;;1.50;;
54271;SDS011;40184;53.362;5.216;2022-09-09T00:45:57;8.48;;;1.77;;
54271;SDS011;40184;53.362;5.216;2022-09-09T00:54:39;7.03;;;1.35;;
54271;SDS011;40184;53.362;5.216;2022-09-09T00:59:52;10.18;;;1.88;;
54271;SDS011;40184;53.362;5.216;2022-09-09T01:02:47;11.38;;;2.05;;
54271;SDS011;40184;53.362;5.216;2022-09-09T01:05:27;9.35;;;2.35;;
54271;SDS011;40184;53.362;5.216;2022-09-09T01:08:00;4.38;;;1.58;;
54271;SDS011;40184;53.362;5.216;2022-09-09T01:11:10;11.77;;;2.20;;
54271;SDS011;40184;53.362;5.216;2022-09-09T01:13:28;5.53;;;1.40;;
54271;SDS011;40184;53.362;5.216;2022-09-09T01:15:59;10.15;;;1.85;;
54271;SDS011;40184;53.362;5.216;2022-09-09T01:18:32;5.68;;;1.20;;
54271;SDS011;40184;53.362;5.216;2022-09-09T01:29:07;5.15;;;2.22;;
54271;SDS011;40184;53.362;5.216;2022-09-09T01:31:39;7.60;;;3.20;;
54271;SDS011;40184;53.362;5.216;2022-09-09T01:42:17;8.77;;;3.95;;
54271;SDS011;40184;53.362;5.216;2022-09-09T01:44:42;9.20;;;4.63;;
54271;SDS011;40184;53.362;5.216;2022-09-09T01:47:08;7.25;;;5.05;;
54271;SDS011;40184;53.362;5.216;2022-09-09T01:49:34;13.80;;;6.38;;
54271;SDS011;40184;53.362;5.216;2022-09-09T01:52:00;16.15;;;7.75;;
54271;SDS011;40184;53.362;5.216;2022-09-09T01:54:27;12.43;;;8.50;;
54271;SDS011;40184;53.362;5.216;2022-09-09T02:05:01;16.63;;;9.18;;
54271;SDS011;40184;53.362;5.216;2022-09-09T02:07:47;16.08;;;9.55;;
54271;SDS011;40184;53.362;5.216;2022-09-09T02:12:44;16.45;;;10.13;;
54271;SDS011;40184;53.362;5.216;2022-09-09T02:18:08;19.58;;;10.70;;
54271;SDS011;40184;53.362;5.216;2022-09-09T02:20:37;14.20;;;10.13;;
54271;SDS011;40184;53.362;5.216;2022-09-09T02:23:04;19.85;;;11.73;;
54271;SDS011;40184;53.362;5.216;2022-09-09T02:25:33;17.20;;;11.52;;
54271;SDS011;40184;53.362;5.216;2022-09-09T02:28:01;21.33;;;12.75;;
54271;SDS011;40184;53.362;5.216;2022-09-09T02:30:28;17.60;;;12.43;;
54271;SDS011;40184;53.362;5.216;2022-09-09T02:32:56;21.30;;;13.27;;
54271;SDS011;40184;53.362;5.216;2022-09-09T02:35:24;23.90;;;13.05;;
54271;SDS011;40184;53.362;5.216;2022-09-09T02:37:52;17.27;;;12.68;;
54271;SDS011;40184;53.362;5.216;2022-09-09T02:40:21;17.23;;;12.10;;
54271;SDS011;40184;53.362;5.216;2022-09-09T02:42:48;21.38;;;12.80;;
54271;SDS011;40184;53.362;5.216;2022-09-09T02:45:24;21.00;;;12.65;;
54271;SDS011;40184;53.362;5.216;2022-09-09T02:56:15;22.60;;;13.48;;
54271;SDS011;40184;53.362;5.216;2022-09-09T02:58:44;21.77;;;13.02;;
54271;SDS011;40184;53.362;5.216;2022-09-09T03:01:11;17.58;;;12.95;;
54271;SDS011;40184;53.362;5.216;2022-09-09T03:03:37;19.75;;;12.85;;
54271;SDS011;40184;53.362;5.216;2022-09-09T03:06:03;18.65;;;12.88;;
54271;SDS011;40184;53.362;5.216;2022-09-09T03:08:30;24.95;;;13.30;;
54271;SDS011;40184;53.362;5.216;2022-09-09T03:10:58;20.35;;;12.55;;
54271;SDS011;40184;53.362;5.216;2022-09-09T03:13:26;25.35;;;13.38;;
54271;SDS011;40184;53.362;5.216;2022-09-09T03:15:52;17.33;;;11.70;;
54271;SDS011;40184;53.362;5.216;2022-09-09T03:18:17;22.52;;;12.40;;
54271;SDS011;40184;53.362;5.216;2022-09-09T03:20:43;24.73;;;12.15;;
54271;SDS011;40184;53.362;5.216;2022-09-09T03:23:09;21.10;;;10.60;;
54271;SDS011;40184;53.362;5.216;2022-09-09T03:25:34;17.85;;;8.40;;
54271;SDS011;40184;53.362;5.216;2022-09-09T03:28:01;17.75;;;8.75;;
54271;SDS011;40184;53.362;5.216;2022-09-09T03:30:27;15.25;;;8.40;;
54271;SDS011;40184;53.362;5.216;2022-09-09T03:32:53;15.93;;;7.30;;
54271;SDS011;40184;53.362;5.216;2022-09-09T03:35:20;13.82;;;6.32;;
54271;SDS011;40184;53.362;5.216;2022-09-09T03:37:46;12.52;;;6.20;;
54271;SDS011;40184;53.362;5.216;2022-09-09T03:40:12;13.18;;;7.80;;
54271;SDS011;40184;53.362;5.216;2022-09-09T03:42:39;15.77;;;7.07;;
54271;SDS011;40184;53.362;5.216;2022-09-09T03:45:06;9.40;;;7.13;;
54271;SDS011;40184;53.362;5.216;2022-09-09T03:47:34;13.13;;;7.68;;
54271;SDS011;40184;53.362;5.216;2022-09-09T03:50:00;21.92;;;8.27;;
54271;SDS011;40184;53.362;5.216;2022-09-09T03:52:25;12.73;;;6.38;;
54271;SDS011;40184;53.362;5.216;2022-09-09T03:54:52;16.10;;;7.07;;
54271;SDS011;40184;53.362;5.216;2022-09-09T03:57:18;16.17;;;7.72;;
54271;SDS011;40184;53.362;5.216;2022-09-09T03:59:45;13.65;;;7.85;;
54271;SDS011;40184;53.362;5.216;2022-09-09T04:02:10;20.45;;;10.18;;
54271;SDS011;40184;53.362;5.216;2022-09-09T04:04:36;17.30;;;8.95;;
54271;SDS011;40184;53.362;5.216;2022-09-09T04:07:02;13.85;;;7.38;;
54271;SDS011;40184;53.362;5.216;2022-09-09T04:09:27;16.92;;;8.40;;
54271;SDS011;40184;53.362;5.216;2022-09-09T04:11:53;15.60;;;10.65;;
54271;SDS011;40184;53.362;5.216;2022-09-09T04:14:20;23.83;;;12.35;;
54271;SDS011;40184;53.362;5.216;2022-09-09T04:16:46;14.65;;;11.25;;
54271;SDS011;40184;53.362;5.216;2022-09-09T04:19:12;18.25;;;10.10;;
54271;SDS011;40184;53.362;5.216;2022-09-09T04:21:41;15.32;;;8.50;;
54271;SDS011;40184;53.362;5.216;2022-09-09T04:24:07;17.00;;;9.30;;
54271;SDS011;40184;53.362;5.216;2022-09-09T04:26:33;18.27;;;9.40;;
54271;SDS011;40184;53.362;5.216;2022-09-09T04:29:00;19.73;;;7.40;;
54271;SDS011;40184;53.362;5.216;2022-09-09T04:31:25;16.65;;;6.85;;
54271;SDS011;40184;53.362;5.216;2022-09-09T04:33:51;13.60;;;6.28;;
54271;SDS011;40184;53.362;5.216;2022-09-09T04:36:17;11.55;;;4.82;;
54271;SDS011;40184;53.362;5.216;2022-09-09T04:38:46;9.30;;;4.32;;
54271;SDS011;40184;53.362;5.216;2022-09-09T04:41:13;21.10;;;4.32;;
54271;SDS011;40184;53.362;5.216;2022-09-09T04:43:39;16.65;;;4.82;;
54271;SDS011;40184;53.362;5.216;2022-09-09T04:46:05;12.73;;;4.28;;
54271;SDS011;40184;53.362;5.216;2022-09-09T04:48:31;12.05;;;3.38;;
54271;SDS011;40184;53.362;5.216;2022-09-09T04:51:00;12.52;;;3.55;;
54271;SDS011;40184;53.362;5.216;2022-09-09T04:53:28;7.60;;;3.00;;
54271;SDS011;40184;53.362;5.216;2022-09-09T04:56:04;8.70;;;3.58;;
54271;SDS011;40184;53.362;5.216;2022-09-09T04:58:40;9.68;;;2.95;;
54271;SDS011;40184;53.362;5.216;2022-09-09T05:01:11;7.05;;;2.33;;
54271;SDS011;40184;53.362;5.216;2022-09-09T05:06:10;11.10;;;3.78;;
54271;SDS011;40184;53.362;5.216;2022-09-09T05:08:38;13.52;;;3.58;;
54271;SDS011;40184;53.362;5.216;2022-09-09T05:11:17;12.63;;;3.78;;
54271;SDS011;40184;53.362;5.216;2022-09-09T05:13:50;10.27;;;4.18;;
54271;SDS011;40184;53.362;5.216;2022-09-09T05:16:17;13.45;;;2.70;;
54271;SDS011;40184;53.362;5.216;2022-09-09T05:18:43;8.10;;;2.25;;
54271;SDS011;40184;53.362;5.216;2022-09-09T05:21:10;11.05;;;2.67;;
54271;SDS011;40184;53.362;5.216;2022-09-09T05:23:37;8.25;;;3.30;;
54271;SDS011;40184;53.362;5.216;2022-09-09T05:26:03;8.35;;;2.10;;
54271;SDS011;40184;53.362;5.216;2022-09-09T05:28:30;6.55;;;2.95;;
54271;SDS011;40184;53.362;5.216;2022-09-09T05:30:59;9.00;;;2.88;;
54271;SDS011;40184;53.362;5.216;2022-09-09T05:33:30;7.18;;;2.20;;
54271;SDS011;40184;53.362;5.216;2022-09-09T05:36:09;9.05;;;2.13;;
54271;SDS011;40184;53.362;5.216;2022-09-09T05:38:38;7.97;;;1.80;;
54271;SDS011;40184;53.362;5.216;2022-09-09T05:41:05;5.47;;;1.73;;
54271;SDS011;40184;53.362;5.216;2022-09-09T05:43:31;6.38;;;1.80;;
54271;SDS011;40184;53.362;5.216;2022-09-09T05:46:01;12.23;;;2.47;;
54271;SDS011;40184;53.362;5.216;2022-09-09T05:48:32;15.25;;;2.78;;
54271;SDS011;40184;53.362;5.216;2022-09-09T05:50:59;5.53;;;2.05;;
54271;SDS011;40184;53.362;5.216;2022-09-09T05:53:29;7.28;;;3.83;;
54271;SDS011;40184;53.362;5.216;2022-09-09T05:56:09;9.98;;;5.32;;
54271;SDS011;40184;53.362;5.216;2022-09-09T05:58:36;11.43;;;6.15;;
54271;SDS011;40184;53.362;5.216;2022-09-09T06:01:04;11.15;;;6.15;;
54271;SDS011;40184;53.362;5.216;2022-09-09T06:03:32;13.15;;;6.60;;
54271;SDS011;40184;53.362;5.216;2022-09-09T06:06:02;13.02;;;6.75;;
54271;SDS011;40184;53.362;5.216;2022-09-09T06:08:32;12.70;;;7.32;;
54271;SDS011;40184;53.362;5.216;2022-09-09T06:11:06;16.63;;;10.50;;
54271;SDS011;40184;53.362;5.216;2022-09-09T06:13:34;17.58;;;10.88;;
54271;SDS011;40184;53.362;5.216;2022-09-09T06:16:02;17.67;;;11.30;;
54271;SDS011;40184;53.362;5.216;2022-09-09T06:18:28;18.90;;;13.55;;
54271;SDS011;40184;53.362;5.216;2022-09-09T06:20:58;15.00;;;12.68;;
54271;SDS011;40184;53.362;5.216;2022-09-09T06:23:25;19.08;;;11.40;;
54271;SDS011;40184;53.362;5.216;2022-09-09T06:26:00;17.73;;;11.88;;
54271;SDS011;40184;53.362;5.216;2022-09-09T06:28:39;16.13;;;11.13;;
54271;SDS011;40184;53.362;5.216;2022-09-09T06:31:07;17.83;;;11.80;;
54271;SDS011;40184;53.362;5.216;2022-09-09T06:33:35;14.95;;;10.23;;
54271;SDS011;40184;53.362;5.216;2022-09-09T06:36:06;12.82;;;9.60;;
54271;SDS011;40184;53.362;5.216;2022-09-09T06:38:35;13.60;;;9.27;;
54271;SDS011;40184;53.362;5.216;2022-09-09T06:41:00;16.27;;;10.63;;
54271;SDS011;40184;53.362;5.216;2022-09-09T06:43:27;13.63;;;9.75;;
54271;SDS011;40184;53.362;5.216;2022-09-09T06:45:56;14.70;;;10.95;;
54271;SDS011;40184;53.362;5.216;2022-09-09T06:48:24;16.90;;;8.77;;
54271;SDS011;40184;53.362;5.216;2022-09-09T06:51:06;17.25;;;10.13;;
54271;SDS011;40184;53.362;5.216;2022-09-09T06:53:34;14.90;;;8.73;;
54271;SDS011;40184;53.362;5.216;2022-09-09T06:56:01;19.42;;;9.65;;
54271;SDS011;40184;53.362;5.216;2022-09-09T06:58:27;13.63;;;9.70;;
54271;SDS011;40184;53.362;5.216;2022-09-09T07:01:01;11.73;;;8.85;;
54271;SDS011;40184;53.362;5.216;2022-09-09T07:03:31;17.83;;;9.80;;
54271;SDS011;40184;53.362;5.216;2022-09-09T07:05:57;14.13;;;8.85;;
54271;SDS011;40184;53.362;5.216;2022-09-09T07:08:23;13.35;;;9.52;;
54271;SDS011;40184;53.362;5.216;2022-09-09T07:10:50;19.23;;;9.60;;
54271;SDS011;40184;53.362;5.216;2022-09-09T07:13:19;14.45;;;10.00;;
54271;SDS011;40184;53.362;5.216;2022-09-09T07:15:53;16.58;;;9.65;;
54271;SDS011;40184;53.362;5.216;2022-09-09T07:18:19;15.90;;;10.55;;
54271;SDS011;40184;53.362;5.216;2022-09-09T07:20:55;18.58;;;10.30;;
54271;SDS011;40184;53.362;5.216;2022-09-09T07:23:22;14.88;;;10.73;;
54271;SDS011;40184;53.362;5.216;2022-09-09T07:25:48;14.93;;;10.18;;
54271;SDS011;40184;53.362;5.216;2022-09-09T07:28:15;18.42;;;10.60;;
54271;SDS011;40184;53.362;5.216;2022-09-09T07:30:41;17.40;;;10.32;;
54271;SDS011;40184;53.362;5.216;2022-09-09T07:33:08;14.05;;;9.93;;
54271;SDS011;40184;53.362;5.216;2022-09-09T07:35:35;14.30;;;8.63;;
54271;SDS011;40184;53.362;5.216;2022-09-09T07:38:02;13.63;;;9.70;;
54271;SDS011;40184;53.362;5.216;2022-09-09T07:40:28;17.15;;;9.57;;
54271;SDS011;40184;53.362;5.216;2022-09-09T07:42:55;13.60;;;8.82;;
54271;SDS011;40184;53.362;5.216;2022-09-09T07:45:21;15.30;;;7.93;;
54271;SDS011;40184;53.362;5.216;2022-09-09T07:47:46;9.85;;;7.53;;
54271;SDS011;40184;53.362;5.216;2022-09-09T07:50:13;11.65;;;7.15;;
54271;SDS011;40184;53.362;5.216;2022-09-09T07:52:40;12.00;;;7.40;;
54271;SDS011;40184;53.362;5.216;2022-09-09T07:55:06;8.50;;;6.88;;
54271;SDS011;40184;53.362;5.216;2022-09-09T07:57:31;10.40;;;6.88;;
54271;SDS011;40184;53.362;5.216;2022-09-09T07:59:57;15.18;;;7.97;;
54271;SDS011;40184;53.362;5.216;2022-09-09T08:02:23;10.85;;;6.88;;
54271;SDS011;40184;53.362;5.216;2022-09-09T08:04:50;11.98;;;7.50;;
54271;SDS011;40184;53.362;5.216;2022-09-09T08:07:16;8.07;;;6.07;;
54271;SDS011;40184;53.362;5.216;2022-09-09T08:09:42;9.13;;;6.97;;
54271;SDS011;40184;53.362;5.216;2022-09-09T08:12:08;9.82;;;6.13;;
54271;SDS011;40184;53.362;5.216;2022-09-09T08:14:35;12.32;;;6.60;;
54271;SDS011;40184;53.362;5.216;2022-09-09T08:17:01;9.98;;;7.28;;
54271;SDS011;40184;53.362;5.216;2022-09-09T08:19:27;29.77;;;7.93;;
54271;SDS011;40184;53.362;5.216;2022-09-09T08:21:55;12.45;;;7.13;;
54271;SDS011;40184;53.362;5.216;2022-09-09T08:24:20;10.13;;;6.63;;
54271;SDS011;40184;53.362;5.216;2022-09-09T08:26:47;8.68;;;6.18;;
54271;SDS011;40184;53.362;5.216;2022-09-09T08:29:16;8.57;;;5.63;;
54271;SDS011;40184;53.362;5.216;2022-09-09T08:31:43;11.27;;;6.28;;
54271;SDS011;40184;53.362;5.216;2022-09-09T08:34:14;11.32;;;5.55;;
54271;SDS011;40184;53.362;5.216;2022-09-09T08:36:43;11.88;;;5.45;;
54271;SDS011;40184;53.362;5.216;2022-09-09T08:39:17;12.43;;;6.03;;
54271;SDS011;40184;53.362;5.216;2022-09-09T08:44:47;7.00;;;4.57;;
54271;SDS011;40184;53.362;5.216;2022-09-09T08:53:34;14.98;;;5.25;;
54271;SDS011;40184;53.362;5.216;2022-09-09T08:55:52;15.15;;;4.13;;
54271;SDS011;40184;53.362;5.216;2022-09-09T09:01:06;12.52;;;4.65;;
54271;SDS011;40184;53.362;5.216;2022-09-09T09:06:49;12.57;;;3.80;;
54271;SDS011;40184;53.362;5.216;2022-09-09T09:09:44;12.45;;;2.97;;
54271;SDS011;40184;53.362;5.216;2022-09-09T09:12:22;8.05;;;2.40;;
54271;SDS011;40184;53.362;5.216;2022-09-09T09:14:49;15.00;;;3.00;;
54271;SDS011;40184;53.362;5.216;2022-09-09T09:17:19;16.23;;;3.20;;
54271;SDS011;40184;53.362;5.216;2022-09-09T09:19:46;7.13;;;2.78;;
54271;SDS011;40184;53.362;5.216;2022-09-09T09:22:20;12.52;;;3.45;;
54271;SDS011;40184;53.362;5.216;2022-09-09T09:24:57;13.95;;;3.58;;
54271;SDS011;40184;53.362;5.216;2022-09-09T09:29:58;8.02;;;2.75;;
54271;SDS011;40184;53.362;5.216;2022-09-09T09:32:25;7.75;;;2.22;;
54271;SDS011;40184;53.362;5.216;2022-09-09T09:34:57;8.90;;;2.72;;
54271;SDS011;40184;53.362;5.216;2022-09-09T09:37:27;7.50;;;2.90;;
54271;SDS011;40184;53.362;5.216;2022-09-09T09:39:55;13.02;;;3.08;;
54271;SDS011;40184;53.362;5.216;2022-09-09T09:42:20;8.98;;;2.05;;
54271;SDS011;40184;53.362;5.216;2022-09-09T09:44:47;9.50;;;2.65;;
54271;SDS011;40184;53.362;5.216;2022-09-09T09:49:50;7.28;;;2.40;;
54271;SDS011;40184;53.362;5.216;2022-09-09T09:52:25;10.35;;;2.05;;
54271;SDS011;40184;53.362;5.216;2022-09-09T09:54:53;11.27;;;2.60;;
54271;SDS011;40184;53.362;5.216;2022-09-09T09:57:27;10.43;;;2.83;;
54271;SDS011;40184;53.362;5.216;2022-09-09T10:00:03;8.07;;;2.78;;
54271;SDS011;40184;53.362;5.216;2022-09-09T10:02:40;8.05;;;2.65;;
54271;SDS011;40184;53.362;5.216;2022-09-09T10:07:40;12.20;;;2.50;;
54271;SDS011;40184;53.362;5.216;2022-09-09T10:10:08;7.72;;;2.78;;
54271;SDS011;40184;53.362;5.216;2022-09-09T10:16:13;7.13;;;2.20;;
54271;SDS011;40184;53.362;5.216;2022-09-09T10:18:46;12.00;;;2.83;;
54271;SDS011;40184;53.362;5.216;2022-09-09T10:21:38;7.57;;;2.60;;
54271;SDS011;40184;53.362;5.216;2022-09-09T10:43:39;7.22;;;2.13;;
54271;SDS011;40184;53.362;5.216;2022-09-09T10:55:39;12.98;;;2.35;;
54271;SDS011;40184;53.362;5.216;2022-09-09T10:58:10;6.93;;;1.98;;
54271;SDS011;40184;53.362;5.216;2022-09-09T11:00:49;11.88;;;2.25;;
54271;SDS011;40184;53.362;5.216;2022-09-09T11:03:24;10.52;;;2.97;;
54271;SDS011;40184;53.362;5.216;2022-09-09T11:06:01;11.18;;;2.20;;
54271;SDS011;40184;53.362;5.216;2022-09-09T11:08:32;13.98;;;3.55;;
54271;SDS011;40184;53.362;5.216;2022-09-09T11:11:04;9.13;;;2.72;;
54271;SDS011;40184;53.362;5.216;2022-09-09T11:19:21;10.57;;;2.78;;
54271;SDS011;40184;53.362;5.216;2022-09-09T11:21:59;11.13;;;3.50;;
54271;SDS011;40184;53.362;5.216;2022-09-09T11:24:40;10.52;;;3.00;;
54271;SDS011;40184;53.362;5.216;2022-09-09T11:27:18;10.10;;;3.10;;
54271;SDS011;40184;53.362;5.216;2022-09-09T11:30:17;12.85;;;2.65;;
54271;SDS011;40184;53.362;5.216;2022-09-09T11:38:44;4.82;;;1.92;;
54271;SDS011;40184;53.362;5.216;2022-09-09T11:41:12;10.65;;;2.80;;
54271;SDS011;40184;53.362;5.216;2022-09-09T11:43:40;11.70;;;3.38;;
54271;SDS011;40184;53.362;5.216;2022-09-09T11:46:07;9.30;;;2.80;;
54271;SDS011;40184;53.362;5.216;2022-09-09T11:48:35;11.20;;;3.38;;
54271;SDS011;40184;53.362;5.216;2022-09-09T11:53:50;4.07;;;1.90;;
54271;SDS011;40184;53.362;5.216;2022-09-09T11:58:59;7.18;;;2.05;;
54271;SDS011;40184;53.362;5.216;2022-09-09T12:01:29;8.45;;;2.03;;
54271;SDS011;40184;53.362;5.216;2022-09-09T12:06:48;8.88;;;2.33;;
54271;SDS011;40184;53.362;5.216;2022-09-09T12:11:52;7.87;;;2.07;;
54271;SDS011;40184;53.362;5.216;2022-09-09T12:14:22;10.13;;;2.60;;
54271;SDS011;40184;53.362;5.216;2022-09-09T12:19:45;9.55;;;2.10;;
54271;SDS011;40184;53.362;5.216;2022-09-09T12:27:33;8.52;;;1.92;;
54271;SDS011;40184;53.362;5.216;2022-09-09T12:30:09;7.68;;;2.10;;
54271;SDS011;40184;53.362;5.216;2022-09-09T12:35:13;8.57;;;2.90;;
54271;SDS011;40184;53.362;5.216;2022-09-09T12:37:52;8.02;;;2.67;;
54271;SDS011;40184;53.362;5.216;2022-09-09T12:40:27;7.95;;;2.67;;
54271;SDS011;40184;53.362;5.216;2022-09-09T12:42:54;8.23;;;2.45;;
54271;SDS011;40184;53.362;5.216;2022-09-09T12:45:22;7.97;;;2.10;;
54271;SDS011;40184;53.362;5.216;2022-09-09T12:47:56;9.00;;;1.90;;
54271;SDS011;40184;53.362;5.216;2022-09-09T12:50:26;7.47;;;2.58;;
54271;SDS011;40184;53.362;5.216;2022-09-09T12:52:55;11.88;;;3.38;;
54271;SDS011;40184;53.362;5.216;2022-09-09T12:55:25;11.57;;;3.30;;
54271;SDS011;40184;53.362;5.216;2022-09-09T12:57:55;7.50;;;2.30;;
54271;SDS011;40184;53.362;5.216;2022-09-09T13:00:23;15.02;;;2.90;;
54271;SDS011;40184;53.362;5.216;2022-09-09T13:02:52;11.55;;;2.20;;
54271;SDS011;40184;53.362;5.216;2022-09-09T13:05:20;6.70;;;2.28;;
54271;SDS011;40184;53.362;5.216;2022-09-09T13:07:50;7.00;;;2.20;;
54271;SDS011;40184;53.362;5.216;2022-09-09T13:10:20;6.68;;;2.33;;
54271;SDS011;40184;53.362;5.216;2022-09-09T13:12:52;8.07;;;2.63;;
54271;SDS011;40184;53.362;5.216;2022-09-09T13:15:20;10.88;;;2.50;;
54271;SDS011;40184;53.362;5.216;2022-09-09T13:17:56;7.28;;;2.45;;
54271;SDS011;40184;53.362;5.216;2022-09-09T13:20:25;10.32;;;3.00;;
54271;SDS011;40184;53.362;5.216;2022-09-09T13:22:52;6.65;;;2.30;;
54271;SDS011;40184;53.362;5.216;2022-09-09T13:25:26;10.43;;;2.90;;
54271;SDS011;40184;53.362;5.216;2022-09-09T13:28:36;4.53;;;1.70;;
54271;SDS011;40184;53.362;5.216;2022-09-09T13:30:55;9.35;;;2.67;;
54271;SDS011;40184;53.362;5.216;2022-09-09T13:33:32;5.22;;;1.70;;
54271;SDS011;40184;53.362;5.216;2022-09-09T13:36:09;8.10;;;2.05;;
54271;SDS011;40184;53.362;5.216;2022-09-09T13:38:40;4.72;;;1.63;;
54271;SDS011;40184;53.362;5.216;2022-09-09T13:41:07;5.45;;;1.83;;
54271;SDS011;40184;53.362;5.216;2022-09-09T13:43:45;9.02;;;2.25;;
54271;SDS011;40184;53.362;5.216;2022-09-09T13:51:40;4.82;;;1.92;;
54271;SDS011;40184;53.362;5.216;2022-09-09T13:54:12;8.82;;;2.15;;
54271;SDS011;40184;53.362;5.216;2022-09-09T13:56:40;6.63;;;2.10;;
54271;SDS011;40184;53.362;5.216;2022-09-09T13:59:11;7.68;;;3.53;;
54271;SDS011;40184;53.362;5.216;2022-09-09T14:01:38;12.55;;;2.42;;
54271;SDS011;40184;53.362;5.216;2022-09-09T14:04:04;6.13;;;1.88;;
54271;SDS011;40184;53.362;5.216;2022-09-09T14:06:31;3.78;;;1.45;;
54271;SDS011;40184;53.362;5.216;2022-09-09T14:08:58;4.53;;;1.60;;
54271;SDS011;40184;53.362;5.216;2022-09-09T14:11:24;7.07;;;2.22;;
54271;SDS011;40184;53.362;5.216;2022-09-09T14:13:49;4.78;;;1.60;;
54271;SDS011;40184;53.362;5.216;2022-09-09T14:16:18;6.28;;;1.98;;
54271;SDS011;40184;53.362;5.216;2022-09-09T14:18:44;7.95;;;2.08;;
54271;SDS011;40184;53.362;5.216;2022-09-09T14:21:10;10.18;;;3.10;;
54271;SDS011;40184;53.362;5.216;2022-09-09T14:23:37;12.75;;;4.07;;
54271;SDS011;40184;53.362;5.216;2022-09-09T14:26:03;5.03;;;1.75;;
54271;SDS011;40184;53.362;5.216;2022-09-09T14:28:32;4.45;;;1.50;;
54271;SDS011;40184;53.362;5.216;2022-09-09T14:30:59;7.82;;;1.92;;
54271;SDS011;40184;53.362;5.216;2022-09-09T14:33:26;5.05;;;1.55;;
54271;SDS011;40184;53.362;5.216;2022-09-09T14:35:57;5.63;;;2.30;;
54271;SDS011;40184;53.362;5.216;2022-09-09T14:38:35;5.72;;;1.90;;
54271;SDS011;40184;53.362;5.216;2022-09-09T14:41:05;8.02;;;1.77;;
54271;SDS011;40184;53.362;5.216;2022-09-09T14:43:31;4.70;;;1.48;;
54271;SDS011;40184;53.362;5.216;2022-09-09T14:45:57;4.82;;;1.35;;
54271;SDS011;40184;53.362;5.216;2022-09-09T14:48:42;6.00;;;1.95;;
54271;SDS011;40184;53.362;5.216;2022-09-09T14:51:13;10.23;;;2.38;;
54271;SDS011;40184;53.362;5.216;2022-09-09T14:53:44;5.10;;;1.50;;
54271;SDS011;40184;53.362;5.216;2022-09-09T14:56:15;5.53;;;1.85;;
54271;SDS011;40184;53.362;5.216;2022-09-09T14:58:42;4.60;;;1.50;;
54271;SDS011;40184;53.362;5.216;2022-09-09T15:01:09;6.05;;;1.95;;
54271;SDS011;40184;53.362;5.216;2022-09-09T15:03:37;7.07;;;1.73;;
54271;SDS011;40184;53.362;5.216;2022-09-09T15:06:07;6.88;;;1.05;;
54271;SDS011;40184;53.362;5.216;2022-09-09T15:08:35;4.63;;;1.55;;
54271;SDS011;40184;53.362;5.216;2022-09-09T15:11:02;4.70;;;1.38;;
54271;SDS011;40184;53.362;5.216;2022-09-09T15:13:29;6.82;;;1.60;;
54271;SDS011;40184;53.362;5.216;2022-09-09T15:15:55;8.90;;;1.85;;
54271;SDS011;40184;53.362;5.216;2022-09-09T15:18:21;9.07;;;1.55;;
54271;SDS011;40184;53.362;5.216;2022-09-09T15:20:46;6.90;;;2.55;;
54271;SDS011;40184;53.362;5.216;2022-09-09T15:23:13;17.73;;;2.50;;
54271;SDS011;40184;53.362;5.216;2022-09-09T15:25:49;5.97;;;2.15;;
54271;SDS011;40184;53.362;5.216;2022-09-09T15:28:19;6.95;;;1.92;;
54271;SDS011;40184;53.362;5.216;2022-09-09T15:30:49;7.68;;;2.65;;
54271;SDS011;40184;53.362;5.216;2022-09-09T15:33:16;8.30;;;2.30;;
54271;SDS011;40184;53.362;5.216;2022-09-09T15:35:42;5.22;;;1.90;;
54271;SDS011;40184;53.362;5.216;2022-09-09T15:38:08;12.57;;;2.90;;
54271;SDS011;40184;53.362;5.216;2022-09-09T15:40:34;6.85;;;2.63;;
54271;SDS011;40184;53.362;5.216;2022-09-09T15:42:59;6.18;;;1.83;;
54271;SDS011;40184;53.362;5.216;2022-09-09T15:45:25;6.88;;;2.17;;
54271;SDS011;40184;53.362;5.216;2022-09-09T15:47:52;5.70;;;1.75;;
54271;SDS011;40184;53.362;5.216;2022-09-09T15:50:17;4.80;;;1.90;;
54271;SDS011;40184;53.362;5.216;2022-09-09T15:52:43;5.70;;;1.70;;
54271;SDS011;40184;53.362;5.216;2022-09-09T15:55:09;8.77;;;2.53;;
54271;SDS011;40184;53.362;5.216;2022-09-09T15:57:35;4.72;;;1.90;;
54271;SDS011;40184;53.362;5.216;2022-09-09T16:00:02;6.53;;;2.30;;
54271;SDS011;40184;53.362;5.216;2022-09-09T16:02:28;5.15;;;2.38;;
54271;SDS011;40184;53.362;5.216;2022-09-09T16:04:55;6.13;;;2.28;;
54271;SDS011;40184;53.362;5.216;2022-09-09T16:07:22;6.40;;;2.45;;
54271;SDS011;40184;53.362;5.216;2022-09-09T16:09:48;7.00;;;2.63;;
54271;SDS011;40184;53.362;5.216;2022-09-09T16:12:16;7.18;;;2.10;;
54271;SDS011;40184;53.362;5.216;2022-09-09T16:14:42;6.97;;;2.08;;
54271;SDS011;40184;53.362;5.216;2022-09-09T16:17:08;5.72;;;1.83;;
54271;SDS011;40184;53.362;5.216;2022-09-09T16:19:34;4.85;;;2.05;;
54271;SDS011;40184;53.362;5.216;2022-09-09T16:21:59;3.78;;;1.85;;
54271;SDS011;40184;53.362;5.216;2022-09-09T16:24:25;5.70;;;1.80;;
54271;SDS011;40184;53.362;5.216;2022-09-09T16:26:52;9.30;;;2.50;;
54271;SDS011;40184;53.362;5.216;2022-09-09T16:29:19;5.65;;;1.88;;
54271;SDS011;40184;53.362;5.216;2022-09-09T16:31:47;5.25;;;2.10;;
54271;SDS011;40184;53.362;5.216;2022-09-09T16:34:13;3.45;;;1.30;;
54271;SDS011;40184;53.362;5.216;2022-09-09T16:36:40;3.75;;;1.55;;
54271;SDS011;40184;53.362;5.216;2022-09-09T16:39:08;3.80;;;1.35;;
54271;SDS011;40184;53.362;5.216;2022-09-09T16:41:35;4.82;;;1.40;;
54271;SDS011;40184;53.362;5.216;2022-09-09T16:44:03;6.45;;;1.80;;
54271;SDS011;40184;53.362;5.216;2022-09-09T16:46:35;2.92;;;1.17;;
54271;SDS011;40184;53.362;5.216;2022-09-09T16:49:07;3.35;;;1.10;;
54271;SDS011;40184;53.362;5.216;2022-09-09T16:51:41;2.33;;;1.10;;
54271;SDS011;40184;53.362;5.216;2022-09-09T16:54:09;2.88;;;1.45;;
54271;SDS011;40184;53.362;5.216;2022-09-09T16:56:37;4.30;;;1.10;;
54271;SDS011;40184;53.362;5.216;2022-09-09T16:59:07;5.15;;;1.65;;
54271;SDS011;40184;53.362;5.216;2022-09-09T17:01:38;2.90;;;0.82;;
54271;SDS011;40184;53.362;5.216;2022-09-09T17:04:10;4.40;;;1.58;;
54271;SDS011;40184;53.362;5.216;2022-09-09T17:06:48;3.75;;;1.33;;
54271;SDS011;40184;53.362;5.216;2022-09-09T17:09:16;4.90;;;1.73;;
54271;SDS011;40184;53.362;5.216;2022-09-09T17:11:43;4.20;;;1.52;;
54271;SDS011;40184;53.362;5.216;2022-09-09T17:14:11;2.97;;;1.23;;
54271;SDS011;40184;53.362;5.216;2022-09-09T17:16:39;5.25;;;1.70;;
54271;SDS011;40184;53.362;5.216;2022-09-09T17:19:05;5.68;;;1.77;;
54271;SDS011;40184;53.362;5.216;2022-09-09T17:21:33;5.28;;;1.60;;
54271;SDS011;40184;53.362;5.216;2022-09-09T17:23:59;3.30;;;1.30;;
54271;SDS011;40184;53.362;5.216;2022-09-09T17:26:26;5.90;;;1.90;;